Time;durP1;ratioP1;P1;durP2;ratioP2;P2;SDS_P1;SDS_P2;PMS_P1;PMS_P2;Temp;Humidity;BMP_temperature;BMP_pressure;BME280_temperature;BME280_humidity;BME280_pressure;Samples;Min_cycle;Max_cycle;Signal;HPM_P1;HPM_P2
2022/02/05 00:02:13;;;;;;;15.50;8.53;;;4.90;99.90;;;;;;2615556;54;20455;-82
2022/02/05 00:04:39;;;;;;;10.40;7.40;;;4.80;99.90;;;;;;2616176;54;20514;-82
2022/02/05 00:07:07;;;;;;;11.30;7.20;;;4.80;99.90;;;;;;2615256;47;20440;-82
2022/02/05 00:12:29;;;;;;;9.87;7.50;;;4.70;99.90;;;;;;2614660;47;20447;-78
2022/02/05 00:44:49;;;;;;;6.17;4.37;;;4.40;99.90;;;;;;2614651;47;20163;-83
2022/02/05 00:47:16;;;;;;;5.93;5.30;;;4.40;99.90;;;;;;2615497;54;20549;-81
2022/02/05 00:49:43;;;;;;;10.93;5.43;;;4.30;99.90;;;;;;2614641;54;20150;-82
2022/02/05 00:52:13;;;;;;;10.73;7.27;;;4.30;99.90;;;;;;2614480;47;20408;-81
2022/02/05 00:54:45;;;;;;;7.60;4.83;;;4.50;99.90;;;;;;2614900;54;20423;-81
2022/02/05 00:59:52;;;;;;;10.50;6.77;;;4.50;99.90;;;;;;2616318;39;20822;-82
2022/02/05 01:02:18;;;;;;;8.60;5.30;;;4.50;99.90;;;;;;2617005;47;20411;-82
2022/02/05 01:04:44;;;;;;;10.27;8.27;;;4.40;99.90;;;;;;2615575;54;20316;-80
2022/02/05 01:07:10;;;;;;;7.30;5.17;;;4.40;99.90;;;;;;2616958;54;21402;-81
2022/02/05 01:09:37;;;;;;;10.37;6.40;;;4.30;99.90;;;;;;2616723;54;20403;-82
2022/02/05 01:12:04;;;;;;;8.87;5.73;;;4.30;99.90;;;;;;2616429;54;20965;-83
2022/02/05 01:14:41;;;;;;;5.30;4.80;;;4.30;99.90;;;;;;2616721;47;20422;-84
2022/02/05 01:17:09;;;;;;;5.63;4.90;;;4.20;99.90;;;;;;2616901;54;20999;-82
2022/02/05 01:20:13;;;;;;;5.67;4.67;;;4.20;99.90;;;;;;2616427;54;20436;-84
2022/02/05 01:22:40;;;;;;;12.93;6.40;;;4.10;99.90;;;;;;2616581;54;20991;-82
2022/02/05 01:25:06;;;;;;;9.83;5.77;;;4.10;99.90;;;;;;2616193;54;20982;-82
2022/02/05 01:27:54;;;;;;;8.70;7.00;;;4.10;99.90;;;;;;2615538;47;20983;-83
2022/02/05 01:33:03;;;;;;;8.30;5.23;;;4.10;99.90;;;;;;2616520;54;20386;-82
2022/02/05 01:58:13;;;;;;;5.93;5.37;;;4.10;99.90;;;;;;2614705;54;20446;-83
2022/02/05 02:06:08;;;;;;;5.30;4.80;;;4.00;99.90;;;;;;2613880;47;20487;-79
2022/02/05 02:14:25;;;;;;;7.67;5.80;;;3.90;99.90;;;;;;2615117;54;20429;-83
2022/02/05 02:19:32;;;;;;;12.03;4.93;;;3.90;99.90;;;;;;2614925;54;20486;-82
2022/02/05 02:22:06;;;;;;;11.57;6.83;;;3.80;99.90;;;;;;2616108;54;20406;-83
2022/02/05 02:24:47;;;;;;;6.03;4.80;;;3.90;99.90;;;;;;2615772;51;20431;-82
2022/02/05 02:27:27;;;;;;;5.87;4.80;;;3.90;99.90;;;;;;2615639;54;20962;-84
2022/02/05 02:30:03;;;;;;;4.70;4.27;;;3.90;99.90;;;;;;2615773;47;20427;-82
2022/02/05 02:32:30;;;;;;;6.17;4.87;;;3.90;99.90;;;;;;2614974;47;20995;-82
2022/02/05 02:35:03;;;;;;;7.43;4.10;;;4.00;99.90;;;;;;2614797;47;20408;-82
2022/02/05 02:38:08;;;;;;;7.43;5.13;;;4.10;99.90;;;;;;2615832;54;21280;-82
2022/02/05 02:43:07;;;;;;;4.93;4.43;;;4.10;99.90;;;;;;2615563;54;20415;-81
2022/02/05 02:45:34;;;;;;;6.53;5.70;;;4.10;99.90;;;;;;2616549;54;20416;-82
2022/02/05 02:48:00;;;;;;;7.60;5.13;;;4.10;99.90;;;;;;2615165;54;20435;-82
2022/02/05 02:56:23;;;;;;;7.37;5.70;;;4.00;99.90;;;;;;2615715;54;20407;-83
2022/02/05 02:58:48;;;;;;;14.57;5.80;;;4.10;99.90;;;;;;2615491;54;20395;-84
2022/02/05 03:01:18;;;;;;;5.27;4.30;;;4.00;99.90;;;;;;2614802;54;20479;-81
2022/02/05 03:03:44;;;;;;;7.00;5.20;;;4.10;99.90;;;;;;2614526;47;20546;-81
2022/02/05 03:06:10;;;;;;;9.33;4.93;;;4.10;99.90;;;;;;2615445;54;20438;-80
2022/02/05 03:08:36;;;;;;;9.83;4.90;;;4.10;99.90;;;;;;2614967;54;20524;-81
2022/02/05 03:11:02;;;;;;;9.27;4.50;;;4.10;99.90;;;;;;2615947;39;20492;-80
2022/02/05 03:13:29;;;;;;;8.90;5.20;;;4.10;99.90;;;;;;2615369;54;20423;-81
2022/02/05 03:15:55;;;;;;;6.10;4.80;;;4.10;99.90;;;;;;2616104;54;20419;-82
2022/02/05 03:18:31;;;;;;;8.63;4.83;;;4.10;99.90;;;;;;2614907;47;20427;-82
2022/02/05 03:20:57;;;;;;;14.30;7.00;;;4.10;99.90;;;;;;2615134;48;20407;-81
2022/02/05 03:23:23;;;;;;;12.50;6.30;;;4.10;99.90;;;;;;2616211;39;21254;-82
2022/02/05 03:25:49;;;;;;;7.70;4.00;;;4.10;99.90;;;;;;2615863;54;20398;-83
2022/02/05 03:28:15;;;;;;;12.67;4.20;;;4.20;99.90;;;;;;2615699;39;20851;-81
2022/02/05 03:30:40;;;;;;;5.87;4.73;;;4.20;99.90;;;;;;2615762;39;20896;-82
2022/02/05 03:33:06;;;;;;;9.77;4.87;;;4.20;99.90;;;;;;2614749;54;20415;-82
2022/02/05 03:35:32;;;;;;;8.83;5.53;;;4.30;99.90;;;;;;2616478;39;20671;-82
2022/02/05 03:37:58;;;;;;;7.40;4.83;;;4.30;99.90;;;;;;2614407;47;20181;-81
2022/02/05 03:40:24;;;;;;;7.60;5.37;;;4.30;99.90;;;;;;2616139;54;20157;-83
2022/02/05 03:42:49;;;;;;;4.43;3.30;;;4.20;99.90;;;;;;2614959;47;20686;-82
2022/02/05 03:45:15;;;;;;;7.03;3.93;;;4.10;99.90;;;;;;2615424;47;20158;-81
2022/02/05 03:47:44;;;;;;;8.23;5.63;;;4.10;99.90;;;;;;2612811;54;20194;-82
2022/02/05 03:50:11;;;;;;;6.57;4.93;;;4.10;99.90;;;;;;2615392;54;20415;-80
2022/02/05 03:52:38;;;;;;;12.93;5.17;;;4.10;99.90;;;;;;2615707;54;20440;-80
2022/02/05 03:55:05;;;;;;;4.60;3.40;;;4.10;99.90;;;;;;2614491;47;20447;-82
2022/02/05 03:57:31;;;;;;;14.57;5.63;;;4.10;99.90;;;;;;2616146;54;20422;-83
2022/02/05 03:59:56;;;;;;;7.47;3.87;;;4.20;99.90;;;;;;2615932;54;20423;-82
2022/02/05 04:02:23;;;;;;;6.70;4.67;;;4.20;99.90;;;;;;2614165;47;20538;-80
2022/02/05 04:04:50;;;;;;;5.93;3.80;;;4.40;99.90;;;;;;2614845;47;21034;-83
2022/02/05 04:07:15;;;;;;;10.00;4.57;;;4.30;99.90;;;;;;2615356;54;20403;-82
2022/02/05 04:09:42;;;;;;;3.97;3.63;;;4.40;99.90;;;;;;2615139;54;20392;-81
2022/02/05 04:17:23;;;;;;;6.43;4.63;;;4.40;99.90;;;;;;2615157;54;20403;-82
2022/02/05 04:19:49;;;;;;;4.73;4.20;;;4.40;99.90;;;;;;2615199;47;20462;-84
2022/02/05 04:22:16;;;;;;;7.10;4.37;;;4.30;99.90;;;;;;2616278;54;20139;-81
2022/02/05 04:24:42;;;;;;;4.37;3.90;;;4.20;99.90;;;;;;2615461;54;20415;-84
2022/02/05 04:27:10;;;;;;;10.90;5.27;;;4.30;99.90;;;;;;2615124;54;20390;-82
2022/02/05 04:29:36;;;;;;;7.43;3.67;;;4.30;99.90;;;;;;2614770;54;20459;-84
2022/02/05 04:32:03;;;;;;;6.10;3.57;;;4.30;99.90;;;;;;2615860;54;20975;-83
2022/02/05 04:34:29;;;;;;;5.60;4.47;;;4.30;99.90;;;;;;2615157;54;20394;-80
2022/02/05 04:36:56;;;;;;;12.00;4.00;;;4.40;99.90;;;;;;2616291;54;20414;-83
2022/02/05 04:39:22;;;;;;;7.20;4.03;;;4.40;99.90;;;;;;2616404;46;20170;-81
2022/02/05 04:42:11;;;;;;;7.30;3.90;;;4.40;99.90;;;;;;2616225;54;20400;-82
2022/02/05 04:55:37;;;;;;;5.87;4.10;;;4.60;99.90;;;;;;2615818;47;20415;-81
2022/02/05 05:06:26;;;;;;;11.23;4.67;;;4.60;99.90;;;;;;2616171;54;20510;-82
2022/02/05 05:11:43;;;;;;;7.83;3.97;;;4.80;99.90;;;;;;2616106;47;20450;-81
2022/02/05 05:19:36;;;;;;;8.10;4.00;;;4.70;99.90;;;;;;2615199;54;20403;-83
2022/02/05 05:22:02;;;;;;;10.33;3.80;;;4.70;99.90;;;;;;2616464;39;22105;-82
2022/02/05 05:24:30;;;;;;;7.47;4.37;;;4.60;99.90;;;;;;2615574;54;20458;-84
2022/02/05 05:26:56;;;;;;;7.97;4.53;;;4.60;99.90;;;;;;2615581;54;20522;-82
2022/02/05 05:29:22;;;;;;;3.57;3.27;;;4.50;99.90;;;;;;2616254;54;20431;-82
2022/02/05 05:31:48;;;;;;;5.57;4.17;;;4.40;99.90;;;;;;2615881;51;20965;-82
2022/02/05 05:34:14;;;;;;;17.87;5.63;;;4.30;99.90;;;;;;2614040;54;20486;-80
2022/02/05 05:36:40;;;;;;;5.73;3.57;;;4.30;99.90;;;;;;2615333;54;20155;-81
2022/02/05 05:39:07;;;;;;;14.50;5.60;;;4.20;99.90;;;;;;2615522;54;21035;-80
2022/02/05 05:41:36;;;;;;;3.20;2.87;;;4.20;99.90;;;;;;2615685;47;20683;-82
2022/02/05 05:46:47;;;;;;;10.43;5.40;;;4.00;99.90;;;;;;2616325;54;20478;-81
2022/02/05 05:52:01;;;;;;;9.17;5.57;;;4.00;99.90;;;;;;2615184;51;20436;-80
2022/02/05 05:54:27;;;;;;;8.17;5.17;;;4.00;99.90;;;;;;2615167;54;21017;-84
2022/02/05 05:56:53;;;;;;;5.13;4.13;;;4.10;99.90;;;;;;2615630;54;20142;-82
2022/02/05 05:59:19;;;;;;;6.40;3.90;;;4.10;99.90;;;;;;2615544;54;20226;-82
2022/02/05 06:01:45;;;;;;;6.13;3.40;;;4.30;99.90;;;;;;2614927;54;20739;-81
2022/02/05 06:04:12;;;;;;;5.33;2.60;;;4.30;99.90;;;;;;2614954;54;21701;-81
2022/02/05 06:06:37;;;;;;;3.43;3.20;;;4.30;99.90;;;;;;2615454;47;20430;-83
2022/02/05 06:09:03;;;;;;;9.47;3.90;;;4.40;99.90;;;;;;2615508;47;20455;-84
2022/02/05 06:11:29;;;;;;;3.47;3.17;;;4.30;99.90;;;;;;2616252;54;20177;-83
2022/02/05 06:13:55;;;;;;;8.77;5.27;;;4.20;99.90;;;;;;2615066;47;20167;-82
2022/02/05 06:16:28;;;;;;;7.93;4.63;;;4.20;99.90;;;;;;2613872;47;20190;-81
2022/02/05 06:18:54;;;;;;;6.80;3.90;;;4.10;99.90;;;;;;2614850;47;20193;-79
2022/02/05 06:21:21;;;;;;;7.33;4.63;;;4.10;99.90;;;;;;2614385;54;20515;-82
2022/02/05 06:23:47;;;;;;;6.53;3.90;;;4.10;99.90;;;;;;2615345;54;20420;-83
2022/02/05 06:26:12;;;;;;;14.53;5.03;;;4.10;99.90;;;;;;2615860;54;20459;-82
2022/02/05 06:28:39;;;;;;;8.20;5.80;;;4.20;99.90;;;;;;2615625;54;20165;-83
2022/02/05 06:31:06;;;;;;;8.80;4.57;;;4.10;99.90;;;;;;2615310;54;20190;-82
2022/02/05 06:33:32;;;;;;;7.20;4.97;;;4.20;99.90;;;;;;2615108;47;20523;-80
2022/02/05 06:35:58;;;;;;;10.63;4.83;;;4.20;99.90;;;;;;2613822;54;20419;-81
2022/02/05 06:38:24;;;;;;;10.70;4.80;;;4.20;99.90;;;;;;2614711;39;20775;-82
2022/02/05 06:40:52;;;;;;;9.80;7.00;;;4.20;99.90;;;;;;2615198;54;20691;-83
2022/02/05 06:43:19;;;;;;;11.93;5.97;;;4.30;99.90;;;;;;2615636;54;20403;-83
2022/02/05 06:45:45;;;;;;;11.77;4.43;;;4.30;99.90;;;;;;2615269;54;20395;-82
2022/02/05 06:48:11;;;;;;;8.20;4.73;;;4.20;99.90;;;;;;2616020;54;20421;-80
2022/02/05 06:50:37;;;;;;;5.63;5.13;;;4.20;99.90;;;;;;2615574;39;20557;-83
2022/02/05 06:53:04;;;;;;;12.43;6.40;;;4.20;99.90;;;;;;2616134;54;20431;-82
2022/02/05 06:55:30;;;;;;;15.70;5.03;;;4.20;99.90;;;;;;2615002;47;20454;-82
2022/02/05 06:57:56;;;;;;;9.43;6.13;;;4.20;99.90;;;;;;2615468;54;20399;-82
2022/02/05 07:00:22;;;;;;;10.33;4.37;;;4.20;99.90;;;;;;2615034;54;20153;-81
2022/02/05 07:02:48;;;;;;;4.23;2.90;;;4.20;99.90;;;;;;2615162;54;21875;-83
2022/02/05 07:05:13;;;;;;;5.17;3.40;;;4.30;99.90;;;;;;2613708;47;20150;-80
2022/02/05 07:07:40;;;;;;;9.77;6.47;;;4.30;99.90;;;;;;2615393;47;21036;-81
2022/02/05 07:10:08;;;;;;;6.50;4.67;;;4.30;99.90;;;;;;2615948;46;20459;-82
2022/02/05 07:12:40;;;;;;;11.57;5.00;;;4.30;99.90;;;;;;2616138;54;20448;-83
2022/02/05 07:15:16;;;;;;;8.43;5.03;;;4.30;99.90;;;;;;2615326;47;20432;-82
2022/02/05 07:18:05;;;;;;;9.20;5.27;;;4.30;99.90;;;;;;2616756;54;20438;-82
2022/02/05 07:31:23;;;;;;;10.93;5.30;;;4.30;99.90;;;;;;2616732;54;20411;-81
2022/02/05 07:33:50;;;;;;;7.93;4.63;;;4.30;99.90;;;;;;2615621;54;20401;-82
2022/02/05 07:36:16;;;;;;;13.77;4.43;;;4.20;99.90;;;;;;2615907;39;20801;-81
2022/02/05 07:38:45;;;;;;;13.50;5.70;;;4.20;99.90;;;;;;2615017;54;20414;-84
2022/02/05 07:41:11;;;;;;;13.43;5.17;;;4.20;99.90;;;;;;2614814;54;20420;-82
2022/02/05 07:43:37;;;;;;;7.13;4.60;;;4.20;99.90;;;;;;2614913;54;20408;-81
2022/02/05 07:46:03;;;;;;;8.40;5.17;;;4.30;99.90;;;;;;2616111;46;20966;-81
2022/02/05 07:48:31;;;;;;;12.20;6.17;;;4.30;99.90;;;;;;2615168;54;20159;-83
2022/02/05 07:50:58;;;;;;;7.63;4.97;;;4.30;99.90;;;;;;2615751;49;20947;-83
2022/02/05 07:53:24;;;;;;;5.97;3.47;;;4.30;99.90;;;;;;2616262;39;20823;-80
2022/02/05 07:55:51;;;;;;;6.13;3.70;;;4.40;99.90;;;;;;2615205;54;20395;-82
2022/02/05 07:58:16;;;;;;;5.33;4.40;;;4.30;99.90;;;;;;2615629;47;20167;-82
2022/02/05 08:00:42;;;;;;;9.20;5.00;;;4.30;99.90;;;;;;2616897;39;20807;-85
2022/02/05 08:03:08;;;;;;;5.20;3.63;;;4.30;99.90;;;;;;2615306;54;20286;-81
2022/02/05 08:05:38;;;;;;;12.73;5.10;;;4.20;99.90;;;;;;2615739;54;20427;-83
2022/02/05 08:08:08;;;;;;;15.27;4.97;;;4.20;99.90;;;;;;2614298;47;20426;-83
2022/02/05 08:10:37;;;;;;;10.43;4.77;;;4.20;99.90;;;;;;2615944;54;20995;-84
2022/02/05 08:13:04;;;;;;;8.20;5.80;;;4.40;99.90;;;;;;2615667;39;20884;-84
2022/02/05 08:15:31;;;;;;;7.27;5.03;;;4.40;99.90;;;;;;2615813;54;20983;-84
2022/02/05 08:17:58;;;;;;;17.33;6.10;;;4.40;99.90;;;;;;2615149;54;20411;-83
2022/02/05 08:20:24;;;;;;;6.90;5.30;;;4.70;99.90;;;;;;2615339;54;20490;-84
2022/02/05 08:22:50;;;;;;;6.23;4.90;;;4.70;99.90;;;;;;2615147;54;21106;-84
2022/02/05 08:25:17;;;;;;;10.97;6.40;;;4.90;99.90;;;;;;2615977;54;20416;-83
2022/02/05 08:27:44;;;;;;;9.37;6.03;;;5.10;99.90;;;;;;2614690;54;20435;-80
2022/02/05 08:30:12;;;;;;;10.57;5.17;;;5.00;99.90;;;;;;2614805;54;21024;-81
2022/02/05 08:32:39;;;;;;;6.37;4.87;;;5.10;99.90;;;;;;2615149;54;20392;-84
2022/02/05 08:35:07;;;;;;;8.60;5.33;;;4.80;99.90;;;;;;2615041;54;20420;-81
2022/02/05 08:37:39;;;;;;;9.20;4.83;;;4.80;99.90;;;;;;2614791;54;20391;-83
2022/02/05 08:40:06;;;;;;;4.53;3.87;;;4.50;99.90;;;;;;2615214;54;20983;-78
2022/02/05 08:42:32;;;;;;;4.70;3.70;;;4.90;99.90;;;;;;2615101;47;20461;-82
2022/02/05 08:44:57;;;;;;;8.30;4.97;;;5.30;99.90;;;;;;2616125;54;20424;-83
2022/02/05 08:47:24;;;;;;;3.87;3.43;;;5.00;99.90;;;;;;2615060;54;20400;-83
2022/02/05 08:49:52;;;;;;;7.10;2.80;;;5.10;99.90;;;;;;2615099;54;20166;-84
2022/02/05 08:52:18;;;;;;;7.33;5.20;;;5.00;99.90;;;;;;2615025;54;20383;-81
2022/02/05 08:54:44;;;;;;;8.10;4.37;;;4.90;99.90;;;;;;2616239;54;20515;-82
2022/02/05 08:57:10;;;;;;;5.50;3.83;;;5.00;99.90;;;;;;2615655;47;20431;-81
2022/02/05 09:02:43;;;;;;;10.27;6.00;;;5.30;99.90;;;;;;2615232;47;20434;-82
2022/02/05 09:05:32;;;;;;;7.13;5.13;;;5.40;99.90;;;;;;2615689;54;20990;-83
2022/02/05 09:07:58;;;;;;;8.30;5.13;;;5.30;99.90;;;;;;2614777;54;20411;-83
2022/02/05 09:15:35;;;;;;;10.70;4.87;;;5.50;99.90;;;;;;2616206;54;20419;-83
2022/02/05 09:18:02;;;;;;;7.73;4.47;;;5.90;99.90;;;;;;2615492;54;20435;-82
2022/02/05 09:20:29;;;;;;;8.33;5.60;;;5.80;99.90;;;;;;2616029;54;20426;-84
2022/02/05 09:22:56;;;;;;;10.50;5.90;;;6.20;99.90;;;;;;2616286;54;20419;-82
2022/02/05 09:25:22;;;;;;;10.80;4.70;;;6.30;99.90;;;;;;2616576;39;20887;-81
2022/02/05 09:27:50;;;;;;;4.30;3.60;;;7.00;99.90;;;;;;2614961;54;20411;-82
2022/02/05 09:30:17;;;;;;;6.70;4.00;;;7.20;99.90;;;;;;2614519;54;20404;-83
2022/02/05 09:32:44;;;;;;;12.07;6.27;;;6.70;99.90;;;;;;2615614;54;20404;-82
2022/02/05 09:35:11;;;;;;;11.70;4.87;;;6.60;99.90;;;;;;2615641;54;20425;-82
2022/02/05 09:37:37;;;;;;;12.10;4.30;;;6.80;99.90;;;;;;2615715;54;20407;-79
2022/02/05 09:40:05;;;;;;;10.17;6.37;;;6.50;99.90;;;;;;2615618;47;20430;-81
2022/02/05 09:42:31;;;;;;;7.93;5.53;;;6.80;99.90;;;;;;2616268;39;20812;-82
2022/02/05 09:45:01;;;;;;;23.67;4.27;;;6.70;99.90;;;;;;2614829;47;20462;-80
2022/02/05 09:47:28;;;;;;;15.13;6.73;;;6.20;99.90;;;;;;2616951;54;20166;-84
2022/02/05 09:49:54;;;;;;;12.83;5.97;;;5.90;99.90;;;;;;2615794;54;20960;-82
2022/02/05 09:52:24;;;;;;;7.33;5.93;;;6.00;99.90;;;;;;2616607;47;20458;-83
2022/02/05 09:54:51;;;;;;;8.37;6.63;;;6.40;99.90;;;;;;2616336;47;20973;-84
2022/02/05 09:57:19;;;;;;;12.40;5.93;;;6.50;99.90;;;;;;2617339;39;20927;-82
2022/02/05 09:59:52;;;;;;;3.90;3.50;;;6.40;99.90;;;;;;2615741;54;20412;-81
2022/02/05 10:02:36;;;;;;;6.70;4.13;;;6.80;99.90;;;;;;2616724;47;20431;-84
2022/02/05 10:05:09;;;;;;;10.93;6.50;;;7.20;99.90;;;;;;2614462;54;20395;-83
2022/02/05 10:07:52;;;;;;;7.17;4.60;;;7.30;99.90;;;;;;2616425;54;20416;-82
2022/02/05 10:10:19;;;;;;;6.83;4.50;;;7.30;99.90;;;;;;2616710;54;20387;-82
2022/02/05 10:13:09;;;;;;;7.43;4.37;;;7.10;99.90;;;;;;2617135;39;20870;-84
2022/02/05 10:15:37;;;;;;;9.63;4.83;;;7.30;99.90;;;;;;2616308;46;20423;-82
2022/02/05 10:18:04;;;;;;;8.30;4.93;;;7.20;99.90;;;;;;2615615;54;20400;-81
2022/02/05 10:20:31;;;;;;;8.10;3.83;;;6.90;99.90;;;;;;2617527;39;20838;-82
2022/02/05 10:23:09;;;;;;;9.97;3.90;;;6.20;99.90;;;;;;2615741;54;20451;-81
2022/02/05 10:25:36;;;;;;;5.73;4.50;;;6.50;99.90;;;;;;2616571;39;20816;-83
2022/02/05 10:28:09;;;;;;;5.70;3.87;;;6.80;99.90;;;;;;2615862;47;20411;-82
2022/02/05 10:30:35;;;;;;;17.63;5.00;;;6.60;99.90;;;;;;2617256;54;20538;-83
2022/02/05 10:33:11;;;;;;;9.30;4.20;;;6.70;99.90;;;;;;2616635;39;20829;-83
2022/02/05 10:35:56;;;;;;;7.03;3.63;;;6.80;99.90;;;;;;2616486;54;21269;-81
2022/02/05 10:43:48;;;;;;;9.30;4.40;;;6.00;99.90;;;;;;2617423;54;20416;-83
2022/02/05 10:46:14;;;;;;;16.20;5.03;;;6.40;99.90;;;;;;2616537;54;20423;-81
2022/02/05 10:48:42;;;;;;;10.40;4.30;;;6.80;99.90;;;;;;2615581;54;20411;-80
2022/02/05 10:51:08;;;;;;;4.60;3.30;;;6.80;99.90;;;;;;2615268;47;20538;-82
2022/02/05 10:53:41;;;;;;;8.23;3.63;;;7.50;99.90;;;;;;2615046;47;20512;-84
2022/02/05 10:58:58;;;;;;;7.70;3.83;;;7.20;99.90;;;;;;2615312;54;20424;-84
2022/02/05 11:07:15;;;;;;;9.50;3.00;;;8.50;99.90;;;;;;2616547;54;20536;-82
2022/02/05 11:09:53;;;;;;;5.80;3.57;;;9.30;99.90;;;;;;2614941;46;20463;-82
2022/02/05 11:20:19;;;;;;;5.90;3.03;;;7.10;99.90;;;;;;2614951;47;20423;-82
2022/02/05 11:22:54;;;;;;;4.07;2.80;;;7.50;99.90;;;;;;2616238;39;20912;-83
2022/02/05 11:25:21;;;;;;;7.30;4.87;;;7.60;99.90;;;;;;2615089;54;20404;-84
2022/02/05 11:27:50;;;;;;;4.53;2.63;;;7.40;99.90;;;;;;2614750;54;20431;-83
2022/02/05 11:30:31;;;;;;;15.70;4.50;;;7.40;99.90;;;;;;2614751;54;21247;-80
2022/02/05 11:33:04;;;;;;;3.67;3.10;;;7.40;99.90;;;;;;2615642;54;20411;-80
2022/02/05 11:35:58;;;;;;;8.33;3.07;;;7.20;99.90;;;;;;2616087;54;20411;-82
2022/02/05 11:38:34;;;;;;;15.73;2.60;;;6.80;99.90;;;;;;2614251;54;20392;-82
2022/02/05 11:41:02;;;;;;;10.53;3.80;;;6.80;99.90;;;;;;2615046;47;20931;-84
2022/02/05 11:43:33;;;;;;;6.23;3.80;;;6.60;99.90;;;;;;2615129;54;20440;-81
2022/02/05 11:46:09;;;;;;;5.67;3.93;;;6.40;99.90;;;;;;2616281;54;20427;-84
2022/02/05 11:48:50;;;;;;;5.90;5.23;;;6.40;99.90;;;;;;2615336;47;20985;-82
2022/02/05 11:51:45;;;;;;;7.63;3.97;;;6.50;99.90;;;;;;2614719;39;21358;-81
2022/02/05 11:54:16;;;;;;;11.40;5.70;;;6.50;99.90;;;;;;2615629;54;20952;-81
2022/02/05 11:59:24;;;;;;;9.00;4.33;;;6.50;99.90;;;;;;2614816;54;20462;-82
2022/02/05 12:01:51;;;;;;;10.70;4.43;;;6.50;99.90;;;;;;2615901;54;20951;-84
2022/02/05 12:04:19;;;;;;;4.50;3.53;;;6.60;99.90;;;;;;2615402;47;20531;-82
2022/02/05 12:06:54;;;;;;;11.73;4.17;;;6.90;99.90;;;;;;2615627;47;20507;-83
2022/02/05 12:09:59;;;;;;;7.50;4.90;;;6.80;99.90;;;;;;2615418;54;20981;-84
2022/02/05 12:15:15;;;;;;;4.73;4.07;;;7.00;99.90;;;;;;2612826;54;20969;-84
2022/02/05 12:20:53;;;;;;;6.93;4.37;;;7.10;99.90;;;;;;2614636;47;20426;-81
2022/02/05 12:25:59;;;;;;;3.80;3.50;;;7.50;99.90;;;;;;2615077;54;20395;-81
2022/02/05 12:28:43;;;;;;;6.97;3.10;;;7.50;99.90;;;;;;2613934;47;20546;-85
2022/02/05 12:31:21;;;;;;;5.30;3.53;;;7.20;99.90;;;;;;2615758;51;20444;-83
2022/02/05 12:33:51;;;;;;;15.63;5.30;;;7.10;99.90;;;;;;2615149;47;20427;-83
2022/02/05 12:36:41;;;;;;;4.97;4.17;;;6.90;99.90;;;;;;2614983;54;20410;-80
2022/02/05 12:39:14;;;;;;;6.13;3.50;;;7.00;99.90;;;;;;2614961;52;21048;-84
2022/02/05 12:41:51;;;;;;;10.27;5.67;;;7.00;99.90;;;;;;2615424;47;20411;-83
2022/02/05 12:44:23;;;;;;;9.73;4.40;;;7.00;99.90;;;;;;2614852;39;21253;-80
2022/02/05 12:46:53;;;;;;;6.93;4.37;;;7.20;99.90;;;;;;2615554;47;20417;-83
2022/02/05 12:49:27;;;;;;;7.80;4.00;;;7.10;99.90;;;;;;2615350;47;20439;-82
2022/02/05 12:51:53;;;;;;;5.43;3.67;;;7.60;99.90;;;;;;2615491;47;20436;-84
2022/02/05 12:54:25;;;;;;;13.67;4.33;;;8.30;99.90;;;;;;2617157;47;20443;-84
2022/02/05 12:56:53;;;;;;;2.37;2.17;;;8.60;99.90;;;;;;2616986;47;20503;-82
2022/02/05 12:59:27;;;;;;;4.23;2.73;;;8.50;99.90;;;;;;2617962;31;20949;-82
2022/02/05 13:02:09;;;;;;;8.83;3.70;;;8.30;99.90;;;;;;2615859;47;20431;-83
2022/02/05 13:04:37;;;;;;;4.80;3.40;;;8.50;99.90;;;;;;2615199;54;20411;-84
2022/02/05 13:07:04;;;;;;;7.77;3.60;;;8.80;99.90;;;;;;2617090;47;20427;-82
2022/02/05 13:09:37;;;;;;;3.23;2.93;;;8.10;99.90;;;;;;2617967;54;20404;-82
2022/02/05 13:12:06;;;;;;;6.93;3.17;;;7.80;99.90;;;;;;2616926;54;20478;-78
2022/02/05 13:14:44;;;;;;;4.93;2.53;;;8.80;99.90;;;;;;2617582;54;20499;-84
2022/02/05 13:17:25;;;;;;;4.20;2.67;;;8.70;99.90;;;;;;2617565;54;20420;-83
2022/02/05 13:36:15;;;;;;;7.47;3.70;;;8.80;99.90;;;;;;2616060;47;20419;-82
2022/02/05 13:41:55;;;;;;;4.57;3.43;;;8.80;99.90;;;;;;2615952;47;20532;-83
2022/02/05 13:44:24;;;;;;;6.83;2.20;;;8.10;99.90;;;;;;2615792;47;20424;-84
2022/02/05 13:47:20;;;;;;;5.80;3.30;;;7.70;99.90;;;;;;2614649;54;20422;-87
2022/02/05 13:50:06;;;;;;;6.03;2.20;;;8.90;99.90;;;;;;2615059;54;20400;-84
2022/02/05 13:52:36;;;;;;;6.43;2.93;;;8.60;99.90;;;;;;2616270;54;20987;-85
2022/02/05 13:55:09;;;;;;;4.10;2.03;;;9.00;99.90;;;;;;2615639;54;20402;-85
2022/02/05 13:57:35;;;;;;;3.87;1.77;;;8.50;99.90;;;;;;2616106;51;20419;-82
2022/02/05 14:00:03;;;;;;;3.57;2.13;;;8.50;99.90;;;;;;2615929;54;20417;-82
2022/02/05 14:02:38;;;;;;;7.00;2.63;;;8.60;99.90;;;;;;2614327;54;20972;-82
2022/02/05 14:05:15;;;;;;;4.70;2.57;;;8.20;99.90;;;;;;2615098;47;20423;-83
2022/02/05 14:07:48;;;;;;;3.47;2.60;;;8.50;99.90;;;;;;2615410;51;20439;-84
2022/02/05 14:10:21;;;;;;;4.23;2.67;;;8.90;99.90;;;;;;2615322;47;20523;-84
2022/02/05 14:12:48;;;;;;;6.00;3.90;;;9.10;98.60;;;;;;2615880;54;20451;-83
2022/02/05 14:15:16;;;;;;;2.30;1.83;;;9.30;93.60;;;;;;2616469;54;20424;-82
2022/02/05 14:17:42;;;;;;;6.50;2.93;;;9.70;90.20;;;;;;2615733;47;20438;-86
2022/02/05 14:20:10;;;;;;;7.17;3.50;;;9.90;86.50;;;;;;2615466;54;20392;-83
2022/02/05 14:22:38;;;;;;;4.73;2.20;;;9.90;86.10;;;;;;2615941;47;20426;-83
2022/02/05 14:25:10;;;;;;;4.83;2.27;;;9.10;94.10;;;;;;2616337;54;20427;-81
2022/02/05 14:27:41;;;;;;;3.20;2.20;;;8.80;95.20;;;;;;2616744;54;20430;-85
2022/02/05 14:30:12;;;;;;;2.97;1.87;;;8.60;96.30;;;;;;2615563;54;20391;-83
2022/02/05 14:32:46;;;;;;;5.57;2.20;;;8.30;99.90;;;;;;2615771;54;20408;-85
2022/02/05 14:41:05;;;;;;;4.93;3.00;;;7.90;99.90;;;;;;2615203;47;20428;-83
2022/02/05 14:43:24;;;;;;;5.43;3.10;;;7.80;99.90;;;;;;2616246;39;20868;-81
2022/02/05 14:45:51;;;;;;;5.80;3.03;;;7.70;99.90;;;;;;2616523;54;20510;-84
2022/02/05 14:48:17;;;;;;;3.50;2.93;;;7.60;99.90;;;;;;2615683;54;20520;-82
2022/02/05 14:50:43;;;;;;;2.77;2.57;;;7.70;99.90;;;;;;2616300;54;20427;-85
2022/02/05 14:53:09;;;;;;;7.90;3.30;;;7.80;99.90;;;;;;2615403;54;20414;-82
2022/02/05 14:55:35;;;;;;;7.50;3.67;;;7.70;99.90;;;;;;2615510;54;20440;-84
2022/02/05 14:58:01;;;;;;;5.43;4.73;;;7.50;99.90;;;;;;2615780;54;20423;-83
2022/02/05 15:00:27;;;;;;;3.10;2.40;;;7.70;99.90;;;;;;2615780;54;20446;-84
2022/02/05 15:02:53;;;;;;;11.47;4.07;;;7.60;99.90;;;;;;2615559;54;20419;-82
2022/02/05 15:05:21;;;;;;;7.73;3.67;;;7.60;99.90;;;;;;2615950;46;20427;-82
2022/02/05 15:07:47;;;;;;;3.20;2.20;;;7.60;99.90;;;;;;2615063;54;20984;-83
2022/02/05 15:10:16;;;;;;;5.43;3.93;;;7.70;99.90;;;;;;2615167;54;20395;-84
2022/02/05 15:12:42;;;;;;;7.60;2.87;;;7.70;99.90;;;;;;2616028;39;20590;-83
2022/02/05 15:15:19;;;;;;;6.23;3.83;;;7.50;99.90;;;;;;2615189;47;20507;-82
2022/02/05 15:17:45;;;;;;;7.57;2.77;;;7.60;99.90;;;;;;2616858;54;20541;-83
2022/02/05 15:20:13;;;;;;;4.97;2.37;;;7.60;99.90;;;;;;2616377;54;20411;-84
2022/02/05 15:22:39;;;;;;;3.20;2.20;;;7.50;99.90;;;;;;2615385;54;20423;-79
2022/02/05 15:25:06;;;;;;;7.63;4.17;;;7.50;99.90;;;;;;2615567;54;20440;-85
2022/02/05 15:27:32;;;;;;;7.37;2.30;;;7.60;99.90;;;;;;2617527;39;20914;-84
2022/02/05 15:29:58;;;;;;;4.13;2.70;;;7.50;99.90;;;;;;2615356;46;20846;-83
2022/02/05 15:32:24;;;;;;;5.10;2.40;;;7.50;99.90;;;;;;2615332;54;20415;-83
2022/02/05 15:34:50;;;;;;;3.27;2.70;;;7.50;99.90;;;;;;2614994;47;20426;-84
2022/02/05 15:37:23;;;;;;;3.40;2.33;;;7.50;99.90;;;;;;2615224;54;20449;-84
2022/02/05 15:45:12;;;;;;;7.07;2.53;;;7.50;99.90;;;;;;2616041;47;20514;-84
2022/02/05 15:47:41;;;;;;;5.23;3.83;;;7.50;99.90;;;;;;2622169;48;20709;-82
2022/02/05 15:50:11;;;;;;;4.63;3.03;;;7.60;99.90;;;;;;2616620;47;20419;-83
2022/02/05 15:52:36;;;;;;;6.90;2.57;;;7.50;99.90;;;;;;2615373;54;20428;-80
2022/02/05 15:55:04;;;;;;;13.43;4.00;;;7.50;99.90;;;;;;2615699;47;20455;-84
2022/02/05 16:00:27;;;;;;;6.63;2.60;;;7.50;99.90;;;;;;2613719;54;20412;-84
2022/02/05 16:02:53;;;;;;;3.03;2.47;;;7.50;99.90;;;;;;2614389;54;20418;-84
2022/02/05 16:05:19;;;;;;;4.37;3.20;;;7.50;99.90;;;;;;2614196;54;20629;-81
2022/02/05 16:07:45;;;;;;;5.93;2.70;;;7.50;99.90;;;;;;2614608;47;20940;-81
2022/02/05 16:10:10;;;;;;;7.10;2.67;;;7.40;99.90;;;;;;2614840;54;20444;-82
2022/02/05 16:12:36;;;;;;;3.23;2.03;;;7.50;99.90;;;;;;2614598;54;20269;-83
2022/02/05 16:15:03;;;;;;;4.83;2.13;;;7.40;99.90;;;;;;2614741;54;21043;-82
2022/02/05 16:17:29;;;;;;;4.67;2.63;;;7.40;99.90;;;;;;2614733;54;20154;-82
2022/02/05 16:19:55;;;;;;;7.80;3.73;;;7.50;99.90;;;;;;2615050;47;20453;-82
2022/02/05 16:22:20;;;;;;;3.97;2.83;;;7.40;99.90;;;;;;2614662;54;21015;-84
2022/02/05 16:24:48;;;;;;;5.33;2.70;;;7.40;99.90;;;;;;2615834;39;20881;-83
2022/02/05 16:27:14;;;;;;;3.90;2.83;;;7.40;99.90;;;;;;2615153;47;20176;-81
2022/02/05 16:29:42;;;;;;;5.03;2.37;;;7.40;99.90;;;;;;2612996;54;20412;-83
2022/02/05 16:32:09;;;;;;;4.13;2.70;;;7.40;99.90;;;;;;2614889;54;20154;-84
2022/02/05 16:34:44;;;;;;;8.80;4.47;;;7.40;99.90;;;;;;2614710;54;20979;-84